Time;durP1;ratioP1;P1;durP2;ratioP2;P2;SDS_P1;SDS_P2;PMS_P1;PMS_P2;Temp;Humidity;BMP_temperature;BMP_pressure;BME280_temperature;BME280_humidity;BME280_pressure;Samples;Min_cycle;Max_cycle;Signal;HPM_P1;HPM_P2
2023/11/20 00:01:58;;;;;;;10.30;4.30;;;9.90;99.90;;;;;;5107937;28;20332;-65
2023/11/20 00:04:26;;;;;;;9.77;4.37;;;9.90;99.90;;;;;;5108169;28;20313;-64
2023/11/20 00:06:53;;;;;;;11.70;4.53;;;9.80;99.90;;;;;;5108236;28;20214;-64
2023/11/20 00:09:21;;;;;;;11.83;4.03;;;9.80;99.90;;;;;;5107999;28;20300;-64
2023/11/20 00:11:48;;;;;;;7.57;3.80;;;9.80;99.90;;;;;;5090801;28;20280;-64
2023/11/20 00:14:14;;;;;;;12.53;3.80;;;9.80;99.90;;;;;;5087757;28;20305;-65
2023/11/20 00:16:41;;;;;;;10.73;3.70;;;9.80;99.90;;;;;;5087624;28;20211;-64
2023/11/20 00:19:10;;;;;;;15.33;4.20;;;9.80;99.90;;;;;;5101495;28;20296;-65
2023/11/20 00:21:41;;;;;;;15.37;3.93;;;9.80;99.90;;;;;;5086842;28;20211;-65
2023/11/20 00:24:09;;;;;;;16.87;4.37;;;9.80;99.90;;;;;;5087327;28;20293;-64
2023/11/20 00:26:36;;;;;;;12.23;4.50;;;9.80;99.90;;;;;;5087491;28;20215;-64
2023/11/20 00:29:04;;;;;;;13.93;4.30;;;9.80;99.90;;;;;;5087448;28;20333;-64
2023/11/20 00:31:31;;;;;;;11.20;3.90;;;9.80;99.90;;;;;;5086675;28;20230;-64
2023/11/20 00:33:58;;;;;;;11.90;4.03;;;9.80;99.90;;;;;;5086966;28;20748;-64
2023/11/20 00:36:25;;;;;;;15.40;4.57;;;9.80;99.90;;;;;;5087502;28;20218;-64
2023/11/20 00:38:53;;;;;;;9.93;3.53;;;9.80;99.90;;;;;;5087262;28;20199;-64
2023/11/20 00:41:20;;;;;;;9.07;3.43;;;9.80;99.90;;;;;;5087284;28;20266;-64
2023/11/20 00:43:47;;;;;;;15.20;4.33;;;9.80;99.90;;;;;;5086844;28;20325;-64
2023/11/20 00:46:14;;;;;;;12.10;3.33;;;9.80;99.90;;;;;;5086853;28;20699;-64
2023/11/20 00:48:43;;;;;;;14.60;4.27;;;9.80;99.90;;;;;;5086962;28;20324;-64
2023/11/20 00:51:11;;;;;;;13.27;3.57;;;9.70;99.90;;;;;;5086728;28;20559;-64
2023/11/20 00:53:38;;;;;;;11.57;3.67;;;9.70;99.90;;;;;;5087164;28;20218;-64
2023/11/20 00:56:07;;;;;;;16.87;3.40;;;9.70;99.90;;;;;;5087040;28;20362;-64
2023/11/20 00:58:34;;;;;;;10.27;3.40;;;9.70;99.90;;;;;;5086755;28;20650;-64
2023/11/20 01:01:01;;;;;;;9.37;3.40;;;9.80;99.90;;;;;;5086760;28;20206;-65
2023/11/20 01:03:28;;;;;;;9.93;3.73;;;9.70;99.90;;;;;;5086869;28;20239;-64
2023/11/20 01:05:55;;;;;;;11.57;3.67;;;9.80;99.90;;;;;;5087136;28;20306;-65
2023/11/20 01:08:22;;;;;;;8.73;2.87;;;9.70;99.90;;;;;;5086185;28;20249;-65
2023/11/20 01:10:49;;;;;;;7.33;2.87;;;9.80;99.90;;;;;;5086736;28;20305;-64
2023/11/20 01:13:17;;;;;;;13.13;3.30;;;9.80;99.90;;;;;;5086590;28;20226;-64
2023/11/20 01:15:45;;;;;;;8.60;2.90;;;9.80;99.90;;;;;;5085953;28;20286;-64
2023/11/20 01:18:12;;;;;;;10.17;3.23;;;9.80;99.90;;;;;;5086138;28;20210;-64
2023/11/20 01:20:41;;;;;;;14.37;3.77;;;9.80;99.90;;;;;;5100148;28;20245;-64
2023/11/20 01:23:08;;;;;;;13.13;3.53;;;9.70;99.90;;;;;;5106998;28;20234;-64
2023/11/20 01:25:34;;;;;;;10.00;3.13;;;9.70;99.90;;;;;;5106871;28;20254;-64
2023/11/20 01:28:02;;;;;;;7.90;2.97;;;9.70;99.90;;;;;;5105769;28;20516;-64
2023/11/20 01:30:30;;;;;;;5.63;2.50;;;9.70;99.90;;;;;;5106383;28;20214;-65
2023/11/20 01:32:57;;;;;;;5.37;2.90;;;9.70;99.90;;;;;;5105899;28;20240;-64
2023/11/20 01:35:24;;;;;;;7.13;3.40;;;9.70;99.90;;;;;;5106098;28;20289;-64
2023/11/20 01:37:50;;;;;;;9.27;3.50;;;9.70;99.90;;;;;;5106359;28;20217;-64
2023/11/20 01:40:17;;;;;;;8.57;3.37;;;9.70;99.90;;;;;;5089184;28;20211;-65
2023/11/20 01:42:44;;;;;;;6.23;2.80;;;9.70;99.90;;;;;;5085479;28;20717;-64
2023/11/20 01:45:11;;;;;;;5.97;2.50;;;9.70;99.90;;;;;;5085890;28;20213;-65
2023/11/20 01:47:40;;;;;;;10.43;3.17;;;9.70;99.90;;;;;;5085695;28;20242;-64
2023/11/20 01:50:10;;;;;;;9.47;3.90;;;9.70;99.90;;;;;;5085997;28;20302;-64
2023/11/20 01:52:42;;;;;;;8.17;3.20;;;9.70;99.90;;;;;;5086288;28;20485;-64
2023/11/20 01:55:10;;;;;;;6.87;2.63;;;9.60;99.90;;;;;;5085892;28;20649;-64
2023/11/20 01:57:39;;;;;;;7.67;2.87;;;9.70;99.90;;;;;;5085574;28;20297;-64
2023/11/20 02:00:09;;;;;;;5.27;3.03;;;9.70;99.90;;;;;;5085544;28;20301;-64
2023/11/20 02:02:37;;;;;;;6.47;2.77;;;9.70;99.90;;;;;;5084971;28;20226;-64
2023/11/20 02:05:06;;;;;;;9.10;2.83;;;9.70;99.90;;;;;;5085723;28;20307;-64
2023/11/20 02:07:34;;;;;;;4.00;2.10;;;9.70;99.90;;;;;;5085119;28;20325;-64
2023/11/20 02:10:01;;;;;;;8.63;2.60;;;9.70;99.90;;;;;;5085685;28;20207;-64
2023/11/20 02:12:28;;;;;;;7.03;2.73;;;9.60;99.90;;;;;;5085533;28;20636;-64
2023/11/20 02:14:55;;;;;;;5.57;2.40;;;9.70;99.90;;;;;;5085862;28;20299;-64
2023/11/20 02:17:22;;;;;;;4.87;2.30;;;9.70;99.90;;;;;;5085113;28;20298;-64
2023/11/20 02:19:50;;;;;;;5.83;2.20;;;9.70;99.90;;;;;;5091726;28;20214;-64
2023/11/20 02:22:18;;;;;;;5.60;2.87;;;9.70;99.90;;;;;;5105882;28;20289;-65
2023/11/20 02:24:46;;;;;;;5.63;1.97;;;9.70;99.90;;;;;;5105834;28;20272;-65
2023/11/20 02:27:26;;;;;;;4.83;2.30;;;9.70;99.90;;;;;;5106098;28;20241;-64
2023/11/20 02:29:55;;;;;;;6.67;2.00;;;9.60;99.90;;;;;;5106016;28;20278;-64
2023/11/20 02:32:23;;;;;;;6.10;2.63;;;9.60;99.90;;;;;;5105471;28;20818;-65
2023/11/20 02:34:51;;;;;;;6.70;2.20;;;9.70;99.90;;;;;;5106192;28;20254;-64
2023/11/20 02:37:18;;;;;;;7.23;2.50;;;9.60;99.90;;;;;;5105673;28;20202;-64
2023/11/20 02:39:48;;;;;;;6.00;2.20;;;9.70;99.90;;;;;;5092185;28;20306;-65
2023/11/20 02:42:15;;;;;;;3.63;2.20;;;9.60;99.90;;;;;;5085714;28;20210;-64
2023/11/20 02:44:43;;;;;;;6.07;2.50;;;9.60;99.90;;;;;;5085021;28;20233;-65
2023/11/20 02:47:11;;;;;;;3.20;1.80;;;9.70;99.90;;;;;;5085141;28;20211;-65
2023/11/20 02:49:38;;;;;;;6.73;1.83;;;9.70;99.90;;;;;;5089451;28;20660;-64
2023/11/20 02:52:06;;;;;;;4.47;1.70;;;9.70;99.90;;;;;;5105388;28;20202;-65
2023/11/20 02:54:33;;;;;;;3.33;2.00;;;9.70;99.90;;;;;;5098234;28;20268;-65
2023/11/20 02:57:00;;;;;;;3.43;1.70;;;9.60;99.90;;;;;;5084725;28;20213;-64
2023/11/20 02:59:28;;;;;;;4.47;2.27;;;9.60;99.90;;;;;;5084405;28;20309;-64
2023/11/20 03:01:55;;;;;;;2.93;1.90;;;9.60;99.90;;;;;;5084744;28;20587;-65
2023/11/20 03:04:24;;;;;;;6.27;1.77;;;9.60;99.90;;;;;;5084383;28;20253;-65
2023/11/20 03:06:51;;;;;;;5.30;2.10;;;9.60;99.90;;;;;;5084144;28;20288;-65
2023/11/20 03:09:18;;;;;;;2.67;2.00;;;9.60;99.90;;;;;;5084066;28;20325;-65
2023/11/20 03:11:46;;;;;;;5.20;1.73;;;9.60;99.90;;;;;;5084424;28;20202;-65
2023/11/20 03:14:14;;;;;;;3.90;1.90;;;9.70;99.90;;;;;;5084633;28;20246;-65
2023/11/20 03:16:41;;;;;;;4.83;2.00;;;9.60;99.90;;;;;;5084469;28;20280;-65
2023/11/20 03:19:08;;;;;;;3.33;2.50;;;9.60;99.90;;;;;;5084251;28;20303;-65
2023/11/20 03:21:40;;;;;;;4.93;3.20;;;9.60;99.90;;;;;;5084335;28;20226;-64
2023/11/20 03:24:08;;;;;;;5.67;2.30;;;9.60;99.90;;;;;;5084152;28;20257;-64
2023/11/20 03:26:35;;;;;;;3.93;1.90;;;9.60;99.90;;;;;;5084648;28;20636;-64
2023/11/20 03:29:03;;;;;;;4.37;2.13;;;9.60;99.90;;;;;;5084073;28;21023;-64
2023/11/20 03:31:35;;;;;;;5.03;1.70;;;9.60;99.90;;;;;;5082597;28;20227;-65
2023/11/20 03:34:01;;;;;;;4.47;2.20;;;9.60;99.90;;;;;;5082553;28;20199;-65
2023/11/20 03:36:30;;;;;;;5.60;2.20;;;9.60;99.90;;;;;;5082593;28;20268;-65
2023/11/20 03:38:58;;;;;;;4.10;1.93;;;9.60;99.90;;;;;;5082876;28;20644;-65
2023/11/20 03:41:26;;;;;;;2.90;1.67;;;9.60;99.90;;;;;;5082444;28;20770;-66
2023/11/20 03:43:53;;;;;;;5.80;2.00;;;9.60;99.90;;;;;;5082215;28;20345;-66
2023/11/20 03:46:21;;;;;;;4.07;1.80;;;9.60;99.90;;;;;;5082264;28;20211;-66
2023/11/20 03:48:48;;;;;;;3.27;1.90;;;9.60;99.90;;;;;;5082388;28;20665;-66
2023/11/20 03:51:17;;;;;;;2.03;1.80;;;9.70;99.90;;;;;;5090358;28;20287;-65
2023/11/20 03:53:44;;;;;;;4.00;1.90;;;9.60;99.90;;;;;;5082447;28;20203;-65
2023/11/20 03:56:14;;;;;;;6.40;2.17;;;9.60;99.90;;;;;;5081679;28;20221;-64
2023/11/20 03:58:43;;;;;;;8.67;2.33;;;9.60;99.90;;;;;;5087958;28;20213;-65
2023/11/20 04:01:11;;;;;;;6.27;2.23;;;9.60;99.90;;;;;;5088256;28;20291;-65
2023/11/20 04:03:39;;;;;;;4.10;1.60;;;9.60;99.90;;;;;;5097870;28;20238;-64
2023/11/20 04:06:06;;;;;;;4.77;2.00;;;9.60;99.90;;;;;;5107839;28;20656;-65
2023/11/20 04:08:33;;;;;;;5.87;2.03;;;9.60;99.90;;;;;;5096069;28;20288;-64
2023/11/20 04:11:02;;;;;;;6.03;1.77;;;9.60;99.90;;;;;;5088207;28;20207;-65
2023/11/20 04:13:30;;;;;;;4.43;1.80;;;9.60;99.90;;;;;;5087834;28;20207;-64
2023/11/20 04:15:57;;;;;;;3.03;1.63;;;9.70;99.90;;;;;;5087663;28;20207;-64
2023/11/20 04:18:24;;;;;;;5.03;1.73;;;9.60;99.90;;;;;;5087228;28;20207;-65
2023/11/20 04:20:51;;;;;;;3.70;1.87;;;9.60;99.90;;;;;;5102308;28;20676;-65
2023/11/20 04:23:18;;;;;;;4.70;1.60;;;9.60;99.90;;;;;;5108030;28;20312;-65
2023/11/20 04:25:45;;;;;;;4.90;1.90;;;9.60;99.90;;;;;;5108184;28;20212;-64
2023/11/20 04:28:12;;;;;;;2.67;1.70;;;9.60;99.90;;;;;;5108347;28;20202;-65
2023/11/20 04:33:21;;;;;;;2.37;1.40;;;9.60;99.90;;;;;;5106513;28;20879;-65
2023/11/20 04:35:48;;;;;;;5.70;1.80;;;9.60;99.90;;;;;;5098229;28;20203;-64
2023/11/20 04:38:15;;;;;;;6.27;1.60;;;9.60;99.90;;;;;;5087164;28;20253;-64
2023/11/20 04:40:42;;;;;;;5.30;1.60;;;9.60;99.90;;;;;;5066769;28;20199;-65
2023/11/20 04:43:09;;;;;;;3.83;1.67;;;9.60;99.90;;;;;;5066567;28;20580;-64
2023/11/20 04:45:36;;;;;;;4.07;1.50;;;9.60;99.90;;;;;;5066913;28;20204;-64
2023/11/20 04:48:05;;;;;;;1.60;1.33;;;9.70;99.90;;;;;;5081798;28;20620;-64
2023/11/20 04:50:31;;;;;;;3.80;1.63;;;9.70;99.90;;;;;;5087073;28;20219;-64
2023/11/20 04:52:59;;;;;;;5.97;1.50;;;9.70;99.90;;;;;;5086722;28;20260;-65
2023/11/20 04:55:25;;;;;;;4.23;1.33;;;9.70;99.90;;;;;;5086813;28;20737;-65
2023/11/20 04:57:52;;;;;;;3.53;1.63;;;9.70;99.90;;;;;;5086766;28;20247;-66
2023/11/20 05:00:20;;;;;;;3.63;1.63;;;9.70;99.90;;;;;;5087011;28;20202;-64
2023/11/20 05:02:47;;;;;;;3.97;1.70;;;9.70;99.90;;;;;;5087042;28;20263;-65
2023/11/20 05:05:15;;;;;;;3.20;1.50;;;9.60;99.90;;;;;;5086708;28;20272;-65
2023/11/20 05:07:42;;;;;;;2.83;1.70;;;9.60;99.90;;;;;;5086100;28;20336;-64
2023/11/20 05:10:10;;;;;;;4.30;1.90;;;9.60;99.90;;;;;;5086499;28;20322;-64
2023/11/20 05:12:37;;;;;;;4.83;2.10;;;9.60;99.90;;;;;;5086102;28;20206;-65
2023/11/20 05:15:04;;;;;;;6.47;1.80;;;9.60;99.90;;;;;;5086220;28;20209;-64
2023/11/20 05:17:31;;;;;;;5.73;1.90;;;9.60;99.90;;;;;;5085933;28;20210;-64
2023/11/20 05:19:58;;;;;;;5.60;1.60;;;9.70;99.90;;;;;;5094023;28;20309;-64
2023/11/20 05:22:26;;;;;;;1.67;1.40;;;9.70;99.90;;;;;;5106421;28;20220;-64
2023/11/20 05:24:53;;;;;;;4.07;2.00;;;9.70;99.90;;;;;;5106987;28;20349;-65
2023/11/20 05:27:21;;;;;;;3.30;2.07;;;9.70;99.90;;;;;;5106672;28;20242;-65
2023/11/20 05:29:48;;;;;;;3.37;1.53;;;9.70;99.90;;;;;;5106574;28;20292;-65
2023/11/20 05:32:15;;;;;;;5.13;2.00;;;9.60;99.90;;;;;;5092610;28;20229;-65
2023/11/20 05:34:43;;;;;;;3.03;1.73;;;9.70;99.90;;;;;;5086280;28;20207;-65
2023/11/20 05:37:11;;;;;;;3.13;1.77;;;9.70;99.90;;;;;;5085855;28;20203;-64
2023/11/20 05:39:40;;;;;;;3.53;1.90;;;9.70;99.90;;;;;;5085953;28;20363;-64
2023/11/20 05:42:07;;;;;;;6.43;1.97;;;9.70;99.90;;;;;;5085995;28;20203;-64
2023/11/20 05:44:34;;;;;;;7.03;1.90;;;9.60;99.90;;;;;;5085457;28;20226;-65
2023/11/20 05:47:01;;;;;;;2.93;1.70;;;9.70;99.90;;;;;;5085673;28;20206;-64
2023/11/20 05:49:28;;;;;;;3.13;1.80;;;9.70;99.90;;;;;;5085573;28;20213;-65
2023/11/20 05:51:54;;;;;;;2.13;1.20;;;9.70;99.90;;;;;;5085835;28;20301;-64
2023/11/20 05:54:21;;;;;;;1.80;1.40;;;9.60;99.90;;;;;;5084861;28;20306;-65
2023/11/20 05:56:49;;;;;;;2.00;1.40;;;9.70;99.90;;;;;;5100443;28;20280;-65
2023/11/20 05:59:16;;;;;;;2.00;1.40;;;9.60;99.90;;;;;;5106254;28;20293;-64
2023/11/20 06:01:43;;;;;;;1.73;1.60;;;9.60;99.90;;;;;;5105944;28;20293;-64
2023/11/20 06:04:10;;;;;;;1.30;1.20;;;9.60;99.90;;;;;;5099731;28;20318;-64
2023/11/20 06:06:37;;;;;;;3.80;1.60;;;9.60;99.90;;;;;;5085560;28;20249;-64
2023/11/20 06:09:05;;;;;;;2.47;1.10;;;9.60;99.90;;;;;;5085762;28;20317;-65
2023/11/20 06:11:33;;;;;;;3.10;1.50;;;9.70;99.90;;;;;;5085877;28;20221;-64
2023/11/20 06:14:01;;;;;;;1.10;1.10;;;9.70;99.90;;;;;;5085764;28;20699;-64
2023/11/20 06:16:28;;;;;;;2.83;1.43;;;9.70;99.90;;;;;;5085176;28;20302;-65
2023/11/20 06:18:55;;;;;;;2.07;1.57;;;9.70;99.90;;;;;;5085345;28;20301;-65
2023/11/20 06:21:22;;;;;;;2.23;1.60;;;9.70;99.90;;;;;;5104517;28;20301;-64
2023/11/20 06:23:49;;;;;;;1.70;1.60;;;9.70;99.90;;;;;;5105956;28;20341;-64
2023/11/20 06:26:16;;;;;;;2.80;1.60;;;9.70;99.90;;;;;;5105818;28;20220;-64
2023/11/20 06:28:44;;;;;;;1.90;1.70;;;9.70;99.90;;;;;;5105966;28;20615;-65
2023/11/20 06:31:13;;;;;;;2.00;1.80;;;9.70;99.90;;;;;;5100947;28;20238;-64
2023/11/20 06:33:40;;;;;;;2.20;1.90;;;9.70;99.90;;;;;;5085363;28;20816;-64
2023/11/20 06:36:07;;;;;;;2.37;1.80;;;9.70;99.90;;;;;;5085055;28;20897;-64
2023/11/20 06:38:35;;;;;;;2.70;2.10;;;9.70;99.90;;;;;;5085304;28;20388;-64
2023/11/20 06:41:02;;;;;;;2.00;1.90;;;9.80;99.90;;;;;;5085450;28;20217;-64
2023/11/20 06:43:30;;;;;;;2.10;1.77;;;9.80;99.90;;;;;;5084835;28;20768;-64
2023/11/20 06:45:57;;;;;;;2.17;1.97;;;9.90;99.90;;;;;;5064972;28;20330;-64
2023/11/20 06:48:25;;;;;;;2.00;1.90;;;9.80;99.90;;;;;;5064658;28;20239;-65
2023/11/20 06:50:52;;;;;;;2.10;1.90;;;9.90;99.90;;;;;;5079946;28;20217;-64
2023/11/20 06:53:19;;;;;;;2.20;1.50;;;9.90;99.90;;;;;;5085393;28;20325;-65
2023/11/20 06:55:46;;;;;;;3.20;1.73;;;9.80;99.90;;;;;;5085095;28;20275;-65
2023/11/20 06:58:13;;;;;;;2.13;1.70;;;9.80;99.90;;;;;;5084780;28;20665;-64
2023/11/20 07:00:42;;;;;;;1.67;1.53;;;9.80;99.90;;;;;;5084845;28;20216;-64
2023/11/20 07:03:09;;;;;;;1.40;1.30;;;9.80;99.90;;;;;;5085102;28;20275;-64
2023/11/20 07:05:37;;;;;;;1.70;1.60;;;9.80;99.90;;;;;;5084646;28;20317;-64
2023/11/20 07:08:07;;;;;;;2.87;1.80;;;9.80;99.90;;;;;;5084694;28;20586;-64
2023/11/20 07:10:34;;;;;;;1.57;1.23;;;9.80;99.90;;;;;;5084601;28;20206;-64
2023/11/20 07:13:01;;;;;;;1.43;1.33;;;9.80;99.90;;;;;;5084772;28;20207;-64
2023/11/20 07:15:28;;;;;;;1.70;1.60;;;9.90;99.90;;;;;;5083869;28;20665;-65
2023/11/20 07:17:55;;;;;;;7.70;1.90;;;9.90;99.90;;;;;;5084617;28;20242;-64
2023/11/20 07:20:22;;;;;;;1.77;1.67;;;9.90;99.90;;;;;;5095344;28;20694;-65
2023/11/20 07:22:50;;;;;;;1.60;1.50;;;9.90;99.90;;;;;;5104883;28;20708;-64
2023/11/20 07:25:17;;;;;;;1.50;1.40;;;9.90;99.90;;;;;;5105063;28;20244;-64
2023/11/20 07:27:44;;;;;;;2.30;1.60;;;9.90;99.90;;;;;;5097536;28;20207;-64
2023/11/20 07:30:12;;;;;;;1.60;1.50;;;9.90;99.90;;;;;;5084244;28;20732;-65
2023/11/20 07:32:39;;;;;;;2.57;1.50;;;9.90;99.90;;;;;;5086188;28;20862;-64
2023/11/20 07:35:07;;;;;;;1.57;1.47;;;9.90;99.90;;;;;;5088411;28;20256;-65
2023/11/20 07:37:35;;;;;;;1.77;1.67;;;9.90;99.90;;;;;;5088073;28;20211;-64
2023/11/20 07:40:08;;;;;;;2.10;1.90;;;9.90;99.90;;;;;;5088214;28;20203;-64
2023/11/20 07:42:35;;;;;;;2.20;1.70;;;9.90;99.90;;;;;;5088002;28;20217;-65
2023/11/20 07:45:02;;;;;;;1.90;1.80;;;9.90;99.90;;;;;;5087750;28;20684;-64
2023/11/20 07:47:29;;;;;;;3.17;1.90;;;9.90;99.90;;;;;;5087289;28;20206;-64
2023/11/20 07:49:56;;;;;;;1.53;1.40;;;9.90;99.90;;;;;;5075011;28;20207;-65
2023/11/20 07:52:23;;;;;;;1.83;1.73;;;10.00;99.90;;;;;;5087479;28;20211;-64
2023/11/20 07:54:51;;;;;;;1.80;1.70;;;9.90;99.90;;;;;;5088060;28;20293;-64
2023/11/20 07:57:21;;;;;;;1.87;1.77;;;10.00;99.90;;;;;;5087867;28;20207;-65
2023/11/20 07:59:48;;;;;;;2.40;2.20;;;10.00;99.90;;;;;;5087701;28;20725;-65
2023/11/20 08:02:14;;;;;;;2.20;2.10;;;10.00;99.90;;;;;;5087746;28;20301;-65
2023/11/20 08:04:41;;;;;;;1.97;1.87;;;10.00;99.90;;;;;;5087763;28;20310;-65
2023/11/20 08:07:08;;;;;;;2.43;2.20;;;10.00;99.90;;;;;;5087418;28;20203;-65
2023/11/20 08:09:35;;;;;;;2.40;2.30;;;10.00;99.90;;;;;;5087342;28;20195;-64
2023/11/20 08:12:02;;;;;;;2.20;2.10;;;10.00;99.90;;;;;;5087400;28;20942;-64
2023/11/20 08:14:31;;;;;;;2.30;2.20;;;10.10;99.90;;;;;;5087540;28;20206;-64
2023/11/20 08:16:58;;;;;;;2.80;2.00;;;10.00;99.90;;;;;;5087528;28;20203;-64
2023/11/20 08:19:25;;;;;;;2.47;2.23;;;10.00;99.90;;;;;;5090006;28;20667;-65
2023/11/20 08:21:52;;;;;;;2.60;2.40;;;10.10;99.90;;;;;;5107628;28;20206;-65
2023/11/20 08:24:19;;;;;;;2.33;2.20;;;10.10;99.90;;;;;;5097639;28;20207;-65
2023/11/20 08:26:47;;;;;;;2.30;2.20;;;10.10;99.90;;;;;;5087548;28;20290;-64
2023/11/20 08:29:16;;;;;;;2.20;2.10;;;10.10;99.90;;;;;;5087448;28;20302;-64
2023/11/20 08:31:44;;;;;;;2.30;2.20;;;10.10;99.90;;;;;;5086966;28;20685;-64
2023/11/20 08:34:11;;;;;;;3.80;2.60;;;10.10;99.90;;;;;;5087603;28;20242;-64
2023/11/20 08:36:38;;;;;;;2.63;2.50;;;10.10;99.90;;;;;;5087385;28;20290;-65
2023/11/20 08:39:11;;;;;;;2.40;2.20;;;10.20;99.90;;;;;;5087965;28;20226;-65
2023/11/20 08:41:39;;;;;;;2.63;2.43;;;10.20;99.90;;;;;;5087865;28;20222;-64
2023/11/20 08:44:06;;;;;;;2.63;2.43;;;10.20;99.90;;;;;;5090426;28;20205;-65
2023/11/20 08:46:33;;;;;;;3.17;2.87;;;10.20;99.90;;;;;;5107401;28;20233;-64
2023/11/20 08:49:02;;;;;;;2.53;2.40;;;10.20;99.90;;;;;;5107493;28;20304;-65
2023/11/20 08:51:29;;;;;;;2.93;2.60;;;10.20;99.90;;;;;;5086644;28;20211;-64
2023/11/20 08:53:56;;;;;;;2.70;2.50;;;10.30;99.90;;;;;;5086767;28;20683;-65
2023/11/20 08:56:23;;;;;;;2.83;2.50;;;10.30;99.90;;;;;;5086745;28;20211;-64
2023/11/20 08:58:50;;;;;;;2.67;2.33;;;10.30;99.90;;;;;;5086794;28;20613;-64
2023/11/20 09:01:17;;;;;;;2.70;2.57;;;10.30;99.90;;;;;;5086462;28;20207;-64
2023/11/20 09:03:44;;;;;;;3.43;2.63;;;10.30;99.90;;;;;;5086990;28;20206;-64
2023/11/20 09:06:12;;;;;;;4.03;2.60;;;10.30;99.90;;;;;;5087404;28;20329;-64
2023/11/20 09:08:39;;;;;;;2.53;2.43;;;10.30;99.90;;;;;;5086862;28;20685;-64
2023/11/20 09:11:07;;;;;;;2.80;2.60;;;10.20;99.90;;;;;;5087365;28;20311;-65
2023/11/20 09:13:34;;;;;;;3.00;2.80;;;10.30;99.90;;;;;;5087467;28;20236;-65
2023/11/20 09:16:01;;;;;;;3.10;2.70;;;10.30;99.90;;;;;;5086929;28;20290;-64
2023/11/20 09:18:28;;;;;;;3.13;2.93;;;10.30;99.90;;;;;;5086785;28;20306;-65
2023/11/20 09:20:57;;;;;;;2.83;2.63;;;10.30;99.90;;;;;;5088741;28;20297;-64
2023/11/20 09:23:26;;;;;;;3.40;3.10;;;10.40;99.90;;;;;;5086429;28;20555;-64
2023/11/20 09:25:53;;;;;;;3.10;2.90;;;10.30;99.90;;;;;;5085855;28;20238;-64
2023/11/20 09:28:21;;;;;;;4.37;3.30;;;10.30;99.90;;;;;;5086087;28;20297;-64
2023/11/20 09:30:48;;;;;;;6.33;3.50;;;10.30;99.90;;;;;;5085955;28;20232;-64
2023/11/20 09:33:15;;;;;;;5.37;4.10;;;10.40;99.90;;;;;;5085929;28;20747;-65
2023/11/20 09:35:42;;;;;;;3.93;3.63;;;10.40;99.90;;;;;;5086187;28;20211;-65
2023/11/20 09:38:09;;;;;;;4.20;3.80;;;10.50;99.90;;;;;;5086858;28;20209;-64
2023/11/20 09:40:38;;;;;;;3.90;3.60;;;10.50;99.90;;;;;;5085747;28;20238;-65
2023/11/20 09:43:09;;;;;;;3.60;3.40;;;10.50;99.90;;;;;;5086232;28;20199;-64
2023/11/20 09:45:39;;;;;;;3.80;3.50;;;10.50;99.90;;;;;;5085566;28;20767;-64
2023/11/20 09:48:08;;;;;;;3.50;3.30;;;10.50;99.90;;;;;;5086124;28;20290;-64
2023/11/20 09:50:39;;;;;;;3.53;3.23;;;10.50;99.90;;;;;;5085718;28;20621;-64
2023/11/20 09:53:08;;;;;;;3.70;3.40;;;10.50;99.90;;;;;;5086383;28;20278;-65
2023/11/20 09:55:36;;;;;;;3.97;3.53;;;10.50;99.90;;;;;;5085214;28;20221;-65
2023/11/20 09:58:03;;;;;;;3.70;3.47;;;10.50;99.90;;;;;;5086102;28;20203;-64
2023/11/20 10:00:31;;;;;;;4.20;3.90;;;10.50;99.90;;;;;;5085368;28;20297;-65
2023/11/20 10:03:00;;;;;;;4.03;3.60;;;10.50;99.90;;;;;;5085732;28;20625;-65
2023/11/20 10:05:31;;;;;;;4.03;3.60;;;10.50;99.90;;;;;;5085777;28;20296;-65
2023/11/20 10:07:58;;;;;;;4.67;3.23;;;10.50;99.90;;;;;;5085672;28;20345;-64
2023/11/20 10:10:28;;;;;;;4.27;3.87;;;10.50;99.90;;;;;;5085286;28;20207;-65
2023/11/20 10:12:58;;;;;;;4.43;3.60;;;10.50;99.90;;;;;;5085889;28;20211;-64
2023/11/20 10:15:26;;;;;;;4.40;3.83;;;10.50;99.90;;;;;;5085134;28;20327;-65
2023/11/20 10:17:53;;;;;;;3.77;3.47;;;10.50;99.90;;;;;;5068960;28;20210;-66
2023/11/20 10:20:20;;;;;;;3.60;3.30;;;10.50;99.90;;;;;;5065045;28;20307;-64
2023/11/20 10:22:47;;;;;;;4.70;3.67;;;10.50;99.90;;;;;;5065513;28;20291;-64
2023/11/20 10:25:15;;;;;;;3.73;3.20;;;10.60;99.90;;;;;;5077228;28;20234;-65
2023/11/20 10:27:42;;;;;;;3.30;3.10;;;10.60;99.90;;;;;;5085495;28;20210;-64
2023/11/20 10:30:13;;;;;;;2.40;2.30;;;10.70;99.90;;;;;;5085270;28;20227;-64
2023/11/20 10:32:42;;;;;;;3.77;2.43;;;10.70;99.90;;;;;;5085199;28;20565;-65
2023/11/20 10:35:14;;;;;;;3.27;2.77;;;10.80;99.90;;;;;;5085344;28;20233;-64
2023/11/20 10:37:52;;;;;;;2.90;2.70;;;10.80;99.90;;;;;;5084716;28;20199;-64
2023/11/20 10:40:19;;;;;;;3.63;3.00;;;10.80;99.90;;;;;;5084780;28;20195;-65
2023/11/20 10:42:46;;;;;;;3.30;2.97;;;10.80;99.90;;;;;;5084811;28;20234;-64
2023/11/20 10:45:15;;;;;;;3.50;3.30;;;10.90;99.90;;;;;;5084592;28;20226;-64
2023/11/20 10:47:43;;;;;;;3.27;3.07;;;10.90;99.90;;;;;;5084798;28;20242;-65
2023/11/20 10:50:14;;;;;;;3.13;2.93;;;10.90;99.90;;;;;;5084895;28;20222;-65
2023/11/20 10:52:42;;;;;;;2.80;2.60;;;10.80;99.90;;;;;;5084657;28;20733;-65
2023/11/20 10:55:12;;;;;;;3.13;2.83;;;10.80;99.90;;;;;;5084689;28;20253;-64
2023/11/20 10:57:40;;;;;;;3.40;3.10;;;10.80;99.90;;;;;;5084600;28;20700;-64
2023/11/20 11:00:11;;;;;;;3.37;3.13;;;10.80;99.90;;;;;;5084899;28;20293;-64
2023/11/20 11:02:42;;;;;;;3.17;2.83;;;10.80;99.90;;;;;;5084818;28;20207;-64
2023/11/20 11:05:10;;;;;;;3.23;2.93;;;10.80;99.90;;;;;;5084831;28;20281;-64
2023/11/20 11:07:40;;;;;;;4.27;2.80;;;10.80;99.90;;;;;;5084635;28;20234;-64
2023/11/20 11:10:10;;;;;;;3.40;2.60;;;10.80;99.90;;;;;;5085149;28;20591;-64
2023/11/20 11:12:41;;;;;;;4.30;2.73;;;10.80;99.90;;;;;;5082514;28;20218;-64
2023/11/20 11:15:12;;;;;;;2.53;2.43;;;10.80;99.90;;;;;;5085147;28;20202;-64
2023/11/20 11:17:45;;;;;;;2.00;1.90;;;10.80;99.90;;;;;;5084665;28;20657;-64
2023/11/20 11:20:16;;;;;;;2.10;2.00;;;10.80;99.90;;;;;;5084361;28;20684;-64
2023/11/20 11:22:51;;;;;;;2.30;2.10;;;10.80;99.90;;;;;;5084668;28;20197;-64
2023/11/20 11:25:24;;;;;;;2.40;2.20;;;10.70;99.90;;;;;;5083946;28;20743;-66
2023/11/20 11:27:56;;;;;;;2.33;2.13;;;10.70;99.90;;;;;;5084381;28;20685;-65
2023/11/20 11:30:25;;;;;;;2.33;2.13;;;10.70;99.90;;;;;;5084286;28;20227;-65
2023/11/20 11:33:38;;;;;;;2.20;2.00;;;10.70;99.90;;;;;;5084753;28;20285;-65
2023/11/20 11:36:22;;;;;;;1.90;1.80;;;10.70;99.90;;;;;;5084982;28;20222;-64
2023/11/20 11:39:00;;;;;;;2.40;2.20;;;10.80;99.90;;;;;;5084597;28;20285;-65
2023/11/20 11:41:39;;;;;;;1.90;1.80;;;10.80;99.90;;;;;;5084761;28;20268;-64
2023/11/20 11:44:13;;;;;;;2.67;2.00;;;10.80;99.90;;;;;;5084464;28;20277;-64
2023/11/20 11:46:43;;;;;;;1.67;1.57;;;10.80;99.90;;;;;;5084232;28;20309;-64
2023/11/20 11:49:20;;;;;;;2.53;1.57;;;10.80;99.90;;;;;;5084340;28;20210;-64
2023/11/20 11:51:52;;;;;;;1.93;1.60;;;10.80;99.90;;;;;;5083760;28;20667;-64
2023/11/20 11:54:20;;;;;;;1.43;1.33;;;10.90;99.90;;;;;;5084493;28;20207;-65
2023/11/20 11:56:59;;;;;;;1.50;1.40;;;10.80;99.90;;;;;;5083690;28;20295;-65
2023/11/20 11:59:33;;;;;;;1.43;1.33;;;10.80;99.90;;;;;;5084158;28;20199;-64
2023/11/20 12:02:00;;;;;;;1.47;1.30;;;10.80;99.90;;;;;;5083955;28;20195;-64
2023/11/20 12:05:03;;;;;;;1.60;1.50;;;10.80;99.90;;;;;;5084502;28;20295;-64
2023/11/20 12:07:53;;;;;;;1.40;1.30;;;10.80;99.90;;;;;;5082427;28;20332;-64
2023/11/20 12:10:45;;;;;;;1.60;1.50;;;10.80;99.90;;;;;;5083859;28;20195;-64
2023/11/20 12:13:15;;;;;;;2.90;1.40;;;10.90;99.90;;;;;;5084364;28;20211;-64
2023/11/20 12:15:44;;;;;;;1.87;1.77;;;10.90;99.90;;;;;;5084595;28;20573;-64
2023/11/20 12:18:16;;;;;;;1.50;1.40;;;10.90;99.90;;;;;;5085487;28;20293;-65
2023/11/20 12:21:01;;;;;;;1.40;1.40;;;11.00;99.90;;;;;;5087267;28;21112;-65
2023/11/20 12:23:31;;;;;;;1.73;1.27;;;11.00;99.90;;;;;;5067103;28;20198;-65
2023/11/20 12:25:59;;;;;;;1.43;1.33;;;11.00;99.90;;;;;;5066814;28;20624;-64
2023/11/20 12:28:27;;;;;;;1.57;1.47;;;11.00;99.90;;;;;;5067070;28;20769;-64
2023/11/20 12:30:55;;;;;;;2.33;1.60;;;11.00;99.90;;;;;;5085218;28;20230;-64
2023/11/20 12:33:22;;;;;;;2.10;1.70;;;11.10;99.90;;;;;;5087190;28;20207;-64
2023/11/20 12:35:52;;;;;;;1.90;1.80;;;11.10;99.90;;;;;;5087293;28;20415;-64
2023/11/20 12:38:19;;;;;;;2.10;2.00;;;11.10;99.90;;;;;;5087233;28;20226;-65
2023/11/20 12:40:51;;;;;;;1.80;1.70;;;11.10;99.90;;;;;;5087607;28;20297;-64
2023/11/20 12:43:19;;;;;;;2.33;2.00;;;11.20;99.90;;;;;;5087480;28;20194;-64
2023/11/20 12:45:46;;;;;;;2.00;1.90;;;11.20;99.90;;;;;;5086844;28;20297;-64
2023/11/20 12:48:13;;;;;;;2.07;1.90;;;11.10;99.90;;;;;;5087434;28;20684;-64
2023/11/20 12:50:40;;;;;;;2.80;2.13;;;11.20;99.90;;;;;;5087238;28;20958;-65
2023/11/20 12:53:07;;;;;;;2.30;2.20;;;11.10;99.90;;;;;;5087306;28;20289;-64
2023/11/20 12:55:34;;;;;;;3.47;2.20;;;11.20;99.90;;;;;;5087076;28;20659;-64
2023/11/20 12:58:02;;;;;;;2.30;2.20;;;11.10;99.90;;;;;;5087214;28;20326;-64
2023/11/20 13:00:30;;;;;;;2.03;1.93;;;11.20;99.90;;;;;;5086893;28;20297;-64
2023/11/20 13:03:00;;;;;;;2.23;2.13;;;11.20;99.90;;;;;;5087222;28;20203;-64